createdAt,value
2018-12-01T00:00:17.112Z,3.50
2018-12-01T00:00:55.165Z,3.56
2018-12-01T00:01:55.196Z,3.49
2018-12-01T00:03:16.256Z,3.53
2018-12-01T00:03:55.264Z,3.53
2018-12-01T00:05:16.291Z,3.53
2018-12-01T00:05:55.310Z,3.66
2018-12-01T00:06:55.288Z,3.61
2018-12-01T00:08:16.320Z,3.61
2018-12-01T00:08:55.332Z,3.52
2018-12-01T00:10:16.336Z,3.55
2018-12-01T00:10:55.348Z,3.50
2018-12-01T00:11:55.382Z,3.45
2018-12-01T00:13:16.401Z,3.37
2018-12-01T00:13:55.419Z,3.40
2018-12-01T00:15:16.547Z,3.45
2018-12-01T00:15:55.479Z,3.34
2018-12-01T00:16:55.496Z,3.36
2018-12-01T00:18:16.473Z,3.48
2018-12-01T00:18:55.473Z,3.37
2018-12-01T00:20:16.550Z,3.41
2018-12-01T00:20:55.531Z,3.36
2018-12-01T00:21:55.543Z,3.27
2018-12-01T00:23:16.589Z,3.30
2018-12-01T00:23:55.598Z,3.29
2018-12-01T00:25:16.638Z,3.36
2018-12-01T00:25:55.622Z,3.37
2018-12-01T00:26:55.650Z,3.27
2018-12-01T00:28:16.661Z,3.31
2018-12-01T00:28:55.674Z,3.33
2018-12-01T00:30:16.720Z,3.36
2018-12-01T00:30:55.725Z,3.40
2018-12-01T00:31:55.733Z,3.36
2018-12-01T00:33:16.754Z,3.36
2018-12-01T00:33:55.772Z,3.37
2018-12-01T00:35:16.810Z,3.43
2018-12-01T00:35:55.799Z,3.34
2018-12-01T00:36:55.813Z,3.34
2018-12-01T00:38:16.841Z,3.34
2018-12-01T00:38:55.854Z,3.41
2018-12-01T00:40:16.884Z,3.40
2018-12-01T00:40:55.894Z,3.37
2018-12-01T00:41:55.893Z,3.45
2018-12-01T00:43:16.927Z,3.33
2018-12-01T00:43:55.945Z,3.31
2018-12-01T00:45:16.964Z,3.31
2018-12-01T00:45:55.979Z,3.27
2018-12-01T00:46:56.009Z,3.33
2018-12-01T00:48:17.045Z,3.21
2018-12-01T00:48:56.049Z,3.33
2018-12-01T00:50:17.065Z,3.29
2018-12-01T00:50:56.075Z,3.30
2018-12-01T00:51:56.069Z,3.33
2018-12-01T00:53:17.102Z,3.40
2018-12-01T00:53:56.115Z,3.30
2018-12-01T00:55:17.160Z,3.41
2018-12-01T00:55:56.147Z,3.29
2018-12-01T00:56:56.171Z,3.37
2018-12-01T00:58:17.194Z,3.40
2018-12-01T00:58:56.213Z,3.30
2018-12-01T01:00:17.230Z,3.29
2018-12-01T01:00:56.243Z,3.40
2018-12-01T01:01:56.248Z,3.33
2018-12-01T01:03:17.282Z,3.33
2018-12-01T01:03:56.285Z,3.36
2018-12-01T01:05:17.342Z,3.31
2018-12-01T01:05:56.356Z,3.36
2018-12-01T01:06:56.324Z,3.31
2018-12-01T01:08:17.394Z,3.31
2018-12-01T01:08:56.362Z,3.37
2018-12-01T01:10:17.399Z,3.43
2018-12-01T01:10:56.408Z,3.41
2018-12-01T01:11:56.433Z,3.30
2018-12-01T01:13:17.464Z,3.36
2018-12-01T01:13:56.463Z,3.33
2018-12-01T01:15:17.512Z,3.31
2018-12-01T01:15:56.524Z,3.40
2018-12-01T01:16:56.519Z,3.33
2018-12-01T01:18:17.541Z,3.36
2018-12-01T01:18:56.557Z,3.31
2018-12-01T01:20:17.618Z,3.22
2018-12-01T01:20:56.610Z,3.24
2018-12-01T01:21:56.618Z,3.26
2018-12-01T01:23:17.646Z,3.22
2018-12-01T01:23:56.639Z,3.31
2018-12-01T01:25:17.683Z,3.24
2018-12-01T01:25:56.699Z,3.21
2018-12-01T01:26:56.727Z,3.21
2018-12-01T01:28:17.739Z,3.21
2018-12-01T01:28:56.746Z,3.29
2018-12-01T01:30:17.792Z,3.29
2018-12-01T01:30:56.758Z,3.34
2018-12-01T01:31:56.797Z,3.43
2018-12-01T01:33:17.843Z,3.41
2018-12-01T01:33:56.829Z,3.55
2018-12-01T01:35:17.891Z,3.45
2018-12-01T01:35:56.837Z,3.53
2018-12-01T01:36:56.899Z,3.56
2018-12-01T01:38:17.906Z,3.45
2018-12-01T01:38:56.922Z,3.46
2018-12-01T01:40:17.972Z,3.50
2018-12-01T01:40:56.944Z,3.53
2018-12-01T01:41:56.982Z,3.55
2018-12-01T01:43:18.020Z,3.53
2018-12-01T01:43:56.996Z,3.52
2018-12-01T01:45:18.058Z,3.53
2018-12-01T01:45:57.035Z,3.53
2018-12-01T01:46:57.090Z,3.63
2018-12-01T01:48:18.103Z,3.58
2018-12-01T01:48:57.112Z,3.64
2018-12-01T01:50:18.113Z,3.64
2018-12-01T01:50:57.113Z,3.68
2018-12-01T01:51:57.137Z,3.66
2018-12-01T01:53:18.199Z,3.70
2018-12-01T01:53:57.195Z,3.74
2018-12-01T01:55:18.218Z,3.66
2018-12-01T01:55:57.215Z,3.73
2018-12-01T01:56:57.235Z,3.70
2018-12-01T01:58:18.256Z,3.59
2018-12-01T01:58:57.270Z,3.61
2018-12-01T02:00:18.312Z,3.66
2018-12-01T02:00:57.318Z,3.64
2018-12-01T02:01:57.323Z,3.66
2018-12-01T02:03:18.368Z,3.58
2018-12-01T02:03:57.370Z,3.55
2018-12-01T02:05:18.436Z,3.56
2018-12-01T02:05:57.400Z,3.53
2018-12-01T02:06:57.413Z,3.50
2018-12-01T02:08:18.453Z,3.49
2018-12-01T02:08:57.449Z,3.52
2018-12-01T02:10:18.481Z,3.55
2018-12-01T02:10:57.534Z,3.66
2018-12-01T02:11:57.489Z,3.56
2018-12-01T02:13:18.570Z,3.70
2018-12-01T02:13:57.582Z,3.63
2018-12-01T02:15:18.573Z,3.55
2018-12-01T02:15:57.574Z,3.61
2018-12-01T02:16:57.618Z,3.52
2018-12-01T02:18:18.639Z,3.56
2018-12-01T02:18:57.591Z,3.56
2018-12-01T02:20:18.661Z,3.56
2018-12-01T02:20:57.659Z,3.53
2018-12-01T02:21:57.666Z,3.55
2018-12-01T02:23:18.716Z,3.43
2018-12-01T02:23:57.745Z,3.64
2018-12-01T02:25:18.742Z,3.63
2018-12-01T02:25:57.756Z,3.58
2018-12-01T02:26:57.791Z,3.66
2018-12-01T02:28:18.815Z,3.53
2018-12-01T02:28:57.812Z,3.53
2018-12-01T02:30:18.858Z,3.53
2018-12-01T02:30:57.825Z,3.52
2018-12-01T02:31:57.845Z,3.53
2018-12-01T02:33:18.904Z,3.55
2018-12-01T02:33:57.909Z,3.52
2018-12-01T02:35:18.939Z,3.56
2018-12-01T02:35:57.920Z,3.52
2018-12-01T02:36:57.958Z,3.55
2018-12-01T02:38:18.995Z,3.59
2018-12-01T02:38:58.006Z,3.58
2018-12-01T02:40:19.021Z,3.61
2018-12-01T02:40:58.042Z,3.64
2018-12-01T02:41:58.055Z,3.66
2018-12-01T02:43:19.077Z,3.64
2018-12-01T02:43:58.099Z,3.63
2018-12-01T02:45:19.125Z,3.70
2018-12-01T02:45:58.105Z,3.70
2018-12-01T02:46:58.135Z,3.74
2018-12-01T02:48:19.170Z,3.70
2018-12-01T02:48:58.170Z,3.66
2018-12-01T02:50:19.219Z,3.70
2018-12-01T02:50:58.193Z,3.67
2018-12-01T02:51:58.239Z,3.61
2018-12-01T02:53:19.237Z,3.67
2018-12-01T02:53:58.254Z,3.58
2018-12-01T02:55:19.281Z,3.58
2018-12-01T02:55:58.299Z,3.64
2018-12-01T02:56:58.320Z,3.67
2018-12-01T02:58:19.352Z,3.68
2018-12-01T02:58:58.346Z,3.70
2018-12-01T03:00:19.362Z,3.74
2018-12-01T03:00:58.370Z,3.71
2018-12-01T03:01:58.389Z,3.77
2018-12-01T03:03:19.430Z,3.78
2018-12-01T03:03:58.432Z,3.82
2018-12-01T03:05:19.470Z,3.88
2018-12-01T03:05:58.491Z,3.96
2018-12-01T03:06:58.479Z,3.92
2018-12-01T03:08:19.517Z,3.85
2018-12-01T03:08:58.517Z,3.77
2018-12-01T03:10:19.544Z,3.91
2018-12-01T03:10:58.559Z,3.77
2018-12-01T03:11:58.588Z,3.78
2018-12-01T03:13:19.615Z,3.88
2018-12-01T03:13:58.612Z,3.78
2018-12-01T03:15:19.653Z,3.73
2018-12-01T03:15:58.667Z,3.85
2018-12-01T03:16:58.649Z,3.66
2018-12-01T03:18:19.733Z,3.67
2018-12-01T03:18:58.703Z,3.67
2018-12-01T03:20:19.741Z,3.73
2018-12-01T03:20:58.725Z,3.68
2018-12-01T03:21:58.746Z,3.73
2018-12-01T03:23:19.784Z,3.59
2018-12-01T03:23:58.800Z,3.48
2018-12-01T03:25:19.830Z,3.45
2018-12-01T03:25:58.838Z,3.52
2018-12-01T03:26:58.852Z,3.43
2018-12-01T03:28:19.862Z,3.45
2018-12-01T03:28:58.864Z,3.50
2018-12-01T03:30:19.919Z,3.66
2018-12-01T03:30:58.934Z,3.66
2018-12-01T03:31:58.957Z,3.63
2018-12-01T03:33:19.965Z,3.70
2018-12-01T03:33:58.955Z,3.74
2018-12-01T03:35:20.031Z,3.71
2018-12-01T03:35:58.996Z,3.81
2018-12-01T03:36:59.020Z,3.81
2018-12-01T03:38:20.039Z,3.73
2018-12-01T03:38:59.057Z,3.74
2018-12-01T03:40:20.089Z,3.67
2018-12-01T03:40:59.086Z,3.76
2018-12-01T03:41:59.092Z,3.70
2018-12-01T03:43:20.146Z,3.78
2018-12-01T03:43:59.130Z,3.71
2018-12-01T03:45:20.184Z,3.74
2018-12-01T03:45:59.169Z,3.77
2018-12-01T03:46:59.201Z,3.77
2018-12-01T03:48:20.250Z,3.82
2018-12-01T03:48:59.235Z,3.84
2018-12-01T03:50:20.274Z,3.82
2018-12-01T03:50:59.263Z,3.78
2018-12-01T03:51:59.263Z,3.77
2018-12-01T03:53:20.357Z,3.76
2018-12-01T03:53:59.341Z,3.78
2018-12-01T03:55:20.367Z,3.81
2018-12-01T03:55:59.369Z,3.81
2018-12-01T03:56:59.391Z,3.66
2018-12-01T03:58:20.424Z,3.61
2018-12-01T03:58:59.402Z,3.64
2018-12-01T04:00:21.310Z,3.49
2018-12-01T04:00:59.451Z,3.59
2018-12-01T04:01:59.482Z,3.66
2018-12-01T04:03:20.499Z,3.64
2018-12-01T04:03:59.498Z,3.71
2018-12-01T04:05:20.518Z,3.67
2018-12-01T04:05:59.534Z,3.73
2018-12-01T04:06:59.556Z,3.67
2018-12-01T04:08:20.562Z,3.58
2018-12-01T04:08:59.566Z,3.56
2018-12-01T04:10:20.612Z,3.61
2018-12-01T04:10:59.636Z,3.66
2018-12-01T04:11:59.610Z,3.61
2018-12-01T04:13:20.654Z,3.66
2018-12-01T04:13:59.674Z,3.77
2018-12-01T04:15:20.724Z,3.74
2018-12-01T04:15:59.707Z,3.71
2018-12-01T04:16:59.739Z,3.78
2018-12-01T04:18:20.771Z,3.70
2018-12-01T04:18:59.766Z,3.78
2018-12-01T04:20:20.784Z,3.76
2018-12-01T04:20:59.809Z,3.73
2018-12-01T04:21:59.815Z,3.74
2018-12-01T04:23:20.851Z,3.78
2018-12-01T04:23:59.851Z,3.74
2018-12-01T04:25:20.885Z,3.82
2018-12-01T04:25:59.893Z,3.81
2018-12-01T04:26:59.898Z,3.92
2018-12-01T04:28:20.931Z,3.92
2018-12-01T04:28:59.937Z,3.81
2018-12-01T04:30:20.968Z,3.91
2018-12-01T04:30:59.985Z,3.81
2018-12-01T04:32:00.033Z,3.73
2018-12-01T04:33:21.025Z,3.73
2018-12-01T04:34:00.044Z,3.66
2018-12-01T04:35:21.116Z,3.58
2018-12-01T04:36:00.078Z,3.61
2018-12-01T04:37:00.093Z,3.58
2018-12-01T04:38:21.124Z,3.55
2018-12-01T04:39:00.117Z,3.64
2018-12-01T04:40:21.184Z,3.77
2018-12-01T04:41:00.158Z,3.76
2018-12-01T04:42:00.194Z,3.64
2018-12-01T04:43:21.226Z,3.71
2018-12-01T04:44:00.216Z,3.77
2018-12-01T04:45:21.241Z,3.84
2018-12-01T04:46:00.258Z,3.82
2018-12-01T04:47:00.279Z,3.81
2018-12-01T04:48:21.297Z,3.82
2018-12-01T04:49:00.343Z,3.81
2018-12-01T04:50:21.342Z,3.85
2018-12-01T04:51:00.321Z,3.74
2018-12-01T04:52:00.364Z,3.67
2018-12-01T04:53:21.391Z,3.66
2018-12-01T04:54:00.412Z,3.61
2018-12-01T04:55:21.432Z,3.55
2018-12-01T04:56:00.449Z,3.56
2018-12-01T04:57:00.457Z,3.55
2018-12-01T04:58:21.467Z,3.52
2018-12-01T04:59:00.471Z,3.58
2018-12-01T05:00:21.508Z,3.56
2018-12-01T05:01:00.513Z,3.66
2018-12-01T05:02:00.519Z,3.68
2018-12-01T05:03:21.569Z,3.82
2018-12-01T05:04:00.559Z,3.78
2018-12-01T05:05:21.620Z,3.89
2018-12-01T05:06:00.586Z,3.70
2018-12-01T05:07:00.629Z,3.76
2018-12-01T05:08:21.663Z,3.84
2018-12-01T05:09:01.543Z,3.92
2018-12-01T05:10:21.703Z,3.89
2018-12-01T05:11:00.701Z,3.92
2018-12-01T05:12:00.704Z,3.99
2018-12-01T05:13:21.748Z,3.82
2018-12-01T05:14:00.734Z,3.82
2018-12-01T05:15:21.770Z,3.74
2018-12-01T05:16:00.838Z,3.76
2018-12-01T05:17:00.801Z,3.53
2018-12-01T05:18:21.857Z,3.50
2018-12-01T05:19:00.900Z,3.55
2018-12-01T05:20:21.868Z,3.56
2018-12-01T05:21:00.877Z,3.68
2018-12-01T05:22:00.896Z,3.70
2018-12-01T05:23:21.932Z,3.70
2018-12-01T05:24:00.943Z,3.78
2018-12-01T05:25:21.976Z,3.85
2018-12-01T05:26:00.969Z,3.81
2018-12-01T05:27:00.969Z,3.81
2018-12-01T05:28:22.021Z,3.74
2018-12-01T05:29:01.011Z,3.64
2018-12-01T05:30:22.057Z,3.70
2018-12-01T05:31:01.037Z,3.68
2018-12-01T05:32:01.063Z,3.68
2018-12-01T05:33:22.095Z,3.81
2018-12-01T05:34:01.115Z,3.74
2018-12-01T05:35:22.169Z,3.77
2018-12-01T05:36:01.154Z,3.82
2018-12-01T05:37:01.149Z,3.92
2018-12-01T05:38:22.191Z,3.77
2018-12-01T05:39:01.177Z,3.81
2018-12-01T05:40:22.223Z,3.82
2018-12-01T05:41:01.244Z,3.81
2018-12-01T05:42:01.231Z,3.88
2018-12-01T05:43:22.306Z,3.78
2018-12-01T05:44:01.276Z,3.91
2018-12-01T05:45:22.321Z,3.95
2018-12-01T05:46:01.334Z,3.96
2018-12-01T05:47:01.330Z,3.99
2018-12-01T05:48:22.462Z,4.00
2018-12-01T05:49:01.376Z,3.99
2018-12-01T05:50:22.376Z,3.89
2018-12-01T05:51:01.421Z,3.81
2018-12-01T05:52:01.418Z,3.74
2018-12-01T05:53:22.435Z,3.78
2018-12-01T05:54:01.459Z,3.89
2018-12-01T05:55:22.486Z,3.99
2018-12-01T05:56:01.491Z,3.99
2018-12-01T05:57:01.515Z,3.92
2018-12-01T05:58:22.561Z,3.95
2018-12-01T05:59:01.528Z,3.94
2018-12-01T06:00:22.577Z,3.88
2018-12-01T06:01:01.609Z,4.03
2018-12-01T06:02:02.333Z,3.89
2018-12-01T06:03:22.661Z,3.99
2018-12-01T06:04:01.636Z,3.95
2018-12-01T06:05:22.667Z,3.95
2018-12-01T06:06:01.677Z,3.92
2018-12-01T06:07:01.692Z,3.94
2018-12-01T06:08:22.721Z,3.94
2018-12-01T06:09:01.722Z,3.95
2018-12-01T06:10:22.754Z,4.00
2018-12-01T06:11:02.206Z,3.99
2018-12-01T06:12:01.793Z,4.02
2018-12-01T06:13:22.816Z,4.02
2018-12-01T06:14:01.816Z,4.02
2018-12-01T06:15:22.862Z,4.03
2018-12-01T06:16:01.899Z,3.96
2018-12-01T06:17:01.907Z,3.91
2018-12-01T06:18:22.892Z,3.92
2018-12-01T06:19:01.897Z,3.78
2018-12-01T06:20:22.939Z,3.76
2018-12-01T06:21:01.934Z,3.91
2018-12-01T06:22:01.956Z,3.92
2018-12-01T06:23:22.986Z,3.99
2018-12-01T06:24:01.994Z,4.04
2018-12-01T06:25:23.022Z,4.06
2018-12-01T06:26:02.033Z,3.99
2018-12-01T06:27:02.058Z,4.00
2018-12-01T06:28:23.083Z,4.03
2018-12-01T06:29:02.092Z,4.00
2018-12-01T06:30:23.137Z,4.03
2018-12-01T06:31:02.117Z,4.07
2018-12-01T06:32:02.125Z,4.04
2018-12-01T06:33:23.178Z,4.10
2018-12-01T06:34:02.178Z,4.07
2018-12-01T06:35:23.211Z,4.09
2018-12-01T06:36:02.245Z,4.06
2018-12-01T06:37:02.233Z,4.09
2018-12-01T06:38:23.284Z,4.12
2018-12-01T06:39:02.259Z,4.04
2018-12-01T06:40:23.307Z,4.20
2018-12-01T06:41:02.294Z,4.10
2018-12-01T06:42:02.312Z,4.16
2018-12-01T06:43:23.348Z,4.18
2018-12-01T06:44:02.364Z,4.16
2018-12-01T06:45:23.383Z,4.20
2018-12-01T06:46:02.389Z,4.24
2018-12-01T06:47:02.421Z,4.20
2018-12-01T06:48:23.459Z,4.20
2018-12-01T06:49:02.420Z,4.13
2018-12-01T06:50:23.453Z,4.16
2018-12-01T06:51:02.476Z,4.10
2018-12-01T06:52:02.489Z,4.16
2018-12-01T06:53:23.536Z,4.09
2018-12-01T06:54:02.537Z,4.07
2018-12-01T06:55:23.569Z,4.03
2018-12-01T06:56:02.589Z,4.18
2018-12-01T06:57:02.595Z,4.21
2018-12-01T06:58:23.609Z,4.12
2018-12-01T06:59:02.599Z,4.02
2018-12-01T07:00:23.656Z,4.06
2018-12-01T07:01:02.674Z,4.18
2018-12-01T07:02:02.707Z,4.18
2018-12-01T07:03:23.723Z,4.09
2018-12-01T07:04:02.714Z,4.16
2018-12-01T07:05:23.756Z,4.18
2018-12-01T07:06:02.756Z,4.22
2018-12-01T07:07:02.782Z,4.20
2018-12-01T07:08:23.814Z,4.21
2018-12-01T07:09:04.727Z,4.25
2018-12-01T07:10:23.858Z,4.24
2018-12-01T07:11:02.839Z,4.28
2018-12-01T07:12:02.871Z,4.24
2018-12-01T07:13:23.891Z,4.13
2018-12-01T07:14:02.915Z,4.13
2018-12-01T07:15:23.948Z,4.18
2018-12-01T07:16:04.235Z,4.18
2018-12-01T07:17:02.964Z,4.18
2018-12-01T07:18:23.984Z,4.27
2018-12-01T07:19:02.974Z,4.24
2018-12-01T07:20:24.021Z,4.21
2018-12-01T07:21:03.035Z,4.24
2018-12-01T07:22:03.069Z,4.25
2018-12-01T07:23:24.101Z,4.31
2018-12-01T07:24:03.072Z,4.27
2018-12-01T07:25:24.112Z,4.25
2018-12-01T07:26:03.121Z,4.32
2018-12-01T07:27:03.162Z,4.32
2018-12-01T07:28:24.149Z,4.27
2018-12-01T07:29:03.169Z,4.28
2018-12-01T07:30:24.195Z,4.25
2018-12-01T07:31:03.195Z,4.25
2018-12-01T07:32:03.207Z,4.34
2018-12-01T07:33:24.268Z,4.21
2018-12-01T07:34:03.235Z,4.32
2018-12-01T07:35:24.299Z,4.25
2018-12-01T07:36:03.302Z,4.30
2018-12-01T07:37:03.314Z,4.24
2018-12-01T07:38:24.335Z,4.28
2018-12-01T07:39:03.325Z,4.27
2018-12-01T07:40:24.442Z,4.27
2018-12-01T07:41:03.433Z,4.25
2018-12-01T07:42:03.456Z,4.30
2018-12-01T07:43:24.458Z,4.20
2018-12-01T07:44:03.459Z,4.22
2018-12-01T07:45:24.479Z,4.32
2018-12-01T07:46:03.479Z,4.25
2018-12-01T07:47:03.511Z,4.32
2018-12-01T07:48:24.545Z,4.31
2018-12-01T07:49:03.526Z,4.28
2018-12-01T07:50:24.596Z,4.27
2018-12-01T07:51:03.572Z,4.30
2018-12-01T07:52:03.609Z,4.32
2018-12-01T07:53:24.611Z,4.39
2018-12-01T07:54:03.631Z,4.39
2018-12-01T07:55:24.644Z,4.46
2018-12-01T07:56:03.671Z,4.57
2018-12-01T07:57:07.329Z,4.49
2018-12-01T07:58:24.747Z,4.46
2018-12-01T07:59:03.720Z,4.46
2018-12-01T08:00:24.743Z,4.46
2018-12-01T08:01:03.722Z,4.52
2018-12-01T08:02:03.831Z,4.45
2018-12-01T08:03:24.816Z,4.49
2018-12-01T08:04:03.844Z,4.60
2018-12-01T08:05:24.982Z,4.58
2018-12-01T08:06:03.879Z,4.67
2018-12-01T08:07:03.974Z,4.64
2018-12-01T08:08:24.889Z,4.67
2018-12-01T08:09:03.884Z,4.68
2018-12-01T08:10:24.978Z,4.70
2018-12-01T08:11:03.967Z,4.67
2018-12-01T08:12:03.964Z,4.64
2018-12-01T08:13:25.003Z,4.63
2018-12-01T08:14:04.011Z,4.76
2018-12-01T08:15:25.117Z,4.58
2018-12-01T08:16:04.092Z,4.70
2018-12-01T08:17:04.128Z,4.71
2018-12-01T08:18:25.156Z,4.64
2018-12-01T08:19:04.168Z,4.71
2018-12-01T08:20:25.148Z,4.67
2018-12-01T08:21:04.206Z,4.63
2018-12-01T08:22:04.297Z,4.79
2018-12-01T08:23:26.303Z,4.84
2018-12-01T08:24:04.236Z,4.74
2018-12-01T08:25:30.248Z,4.79
2018-12-01T08:26:04.234Z,4.78
2018-12-01T08:27:04.289Z,4.79
2018-12-01T08:28:25.310Z,4.83
2018-12-01T08:29:07.344Z,4.86
2018-12-01T08:30:25.406Z,4.79
2018-12-01T08:31:04.319Z,4.71
2018-12-01T08:32:04.360Z,4.76
2018-12-01T08:33:25.515Z,4.82
2018-12-01T08:34:04.390Z,4.84
2018-12-01T08:35:25.494Z,4.87
2018-12-01T08:36:04.502Z,4.84
2018-12-01T08:37:04.459Z,4.95
2018-12-01T08:38:25.507Z,4.97
2018-12-01T08:39:04.460Z,4.94
2018-12-01T08:40:29.400Z,4.98
2018-12-01T08:41:04.609Z,4.95
2018-12-01T08:42:04.595Z,4.95
2018-12-01T08:43:25.568Z,4.97
2018-12-01T08:44:06.715Z,5.02
2018-12-01T08:45:25.641Z,5.02
2018-12-01T08:46:04.635Z,5.02
2018-12-01T08:47:04.927Z,4.98
2018-12-01T08:48:26.020Z,4.98
2018-12-01T08:49:04.738Z,4.97
2018-12-01T08:50:25.737Z,4.95
2018-12-01T08:51:04.723Z,5.02
2018-12-01T08:52:04.705Z,5.07
2018-12-01T08:53:25.747Z,5.07
2018-12-01T08:54:04.766Z,5.12
2018-12-01T08:55:25.841Z,5.16
2018-12-01T08:56:04.904Z,5.23
2018-12-01T08:57:04.942Z,5.22
2018-12-01T08:58:27.807Z,5.33
2018-12-01T08:59:04.885Z,5.36
2018-12-01T09:00:26.941Z,5.28
2018-12-01T09:01:06.801Z,5.26
2018-12-01T09:02:04.901Z,5.29
2018-12-01T09:03:25.931Z,5.23
2018-12-01T09:04:04.940Z,5.34
2018-12-01T09:05:26.049Z,5.40
2018-12-01T09:06:05.002Z,5.36
2018-12-01T09:07:04.977Z,5.43
2018-12-01T09:08:26.033Z,5.43
2018-12-01T09:09:05.137Z,5.43
2018-12-01T09:10:26.068Z,5.33
2018-12-01T09:11:05.109Z,5.38
2018-12-01T09:12:05.097Z,5.49
2018-12-01T09:13:26.229Z,5.47
2018-12-01T09:14:05.243Z,5.56
2018-12-01T09:15:26.183Z,5.43
2018-12-01T09:16:05.165Z,5.46
2018-12-01T09:17:05.275Z,5.51
2018-12-01T09:18:26.241Z,5.52
2018-12-01T09:19:05.381Z,5.43
2018-12-01T09:20:26.348Z,5.46
2018-12-01T09:21:09.276Z,5.51
2018-12-01T09:22:05.371Z,5.41
2018-12-01T09:23:26.411Z,5.46
2018-12-01T09:24:05.362Z,5.52
2018-12-01T09:25:26.425Z,5.51
2018-12-01T09:26:05.373Z,5.59
2018-12-01T09:27:05.512Z,5.62
2018-12-01T09:28:26.432Z,5.67
2018-12-01T09:29:05.674Z,5.67
2018-12-01T09:30:26.525Z,5.74
2018-12-01T09:31:05.591Z,5.72
2018-12-01T09:32:05.519Z,5.84
2018-12-01T09:33:26.651Z,5.88
2018-12-01T09:34:05.569Z,5.83
2018-12-01T09:35:26.715Z,5.94
2018-12-01T09:36:05.584Z,5.77
2018-12-01T09:37:05.644Z,5.81
2018-12-01T09:38:26.641Z,5.88
2018-12-01T09:39:05.729Z,5.90
2018-12-01T09:40:26.659Z,5.97
2018-12-01T09:41:05.664Z,5.94
2018-12-01T09:42:05.692Z,5.91
2018-12-01T09:43:26.741Z,5.98
2018-12-01T09:44:05.817Z,5.99
2018-12-01T09:45:26.811Z,5.95
2018-12-01T09:46:05.753Z,6.02
2018-12-01T09:47:05.846Z,5.88
2018-12-01T09:48:26.904Z,5.94
2018-12-01T09:49:05.903Z,5.97
2018-12-01T09:50:26.958Z,5.95
2018-12-01T09:51:05.993Z,6.07
2018-12-01T09:52:06.119Z,6.10
2018-12-01T09:53:26.942Z,6.13
2018-12-01T09:54:06.013Z,6.19
2018-12-01T09:55:27.009Z,6.19
2018-12-01T09:56:06.043Z,6.17
2018-12-01T09:57:05.929Z,6.07
2018-12-01T09:58:27.047Z,6.17
2018-12-01T09:59:06.030Z,6.10
2018-12-01T10:00:27.045Z,6.28
2018-12-01T10:01:06.296Z,6.35
2018-12-01T10:02:06.524Z,6.32
2018-12-01T10:03:27.248Z,6.36
2018-12-01T10:04:06.386Z,6.52
2018-12-01T10:05:27.127Z,6.57
2018-12-01T10:06:06.210Z,6.53
2018-12-01T10:07:06.178Z,6.56
2018-12-01T10:08:27.212Z,6.57
2018-12-01T10:09:06.176Z,6.64
2018-12-01T10:10:27.243Z,6.71
2018-12-01T10:11:06.236Z,6.65
2018-12-01T10:12:06.279Z,6.71
2018-12-01T10:13:27.278Z,6.77
2018-12-01T10:14:06.290Z,6.74
2018-12-01T10:15:27.334Z,6.86
2018-12-01T10:16:06.321Z,6.82
2018-12-01T10:17:06.366Z,6.86
2018-12-01T10:18:27.457Z,6.72
2018-12-01T10:19:06.376Z,6.71
2018-12-01T10:20:27.413Z,6.75
2018-12-01T10:21:06.449Z,6.85
2018-12-01T10:22:06.421Z,6.82
2018-12-01T10:23:27.533Z,6.89
2018-12-01T10:24:06.481Z,6.78
2018-12-01T10:25:27.536Z,6.87
2018-12-01T10:26:06.500Z,6.85
2018-12-01T10:27:06.543Z,6.86
2018-12-01T10:28:27.573Z,6.85
2018-12-01T10:29:06.652Z,6.85
2018-12-01T10:30:27.668Z,6.85
2018-12-01T10:31:06.649Z,6.87
2018-12-01T10:32:06.688Z,6.83
2018-12-01T10:33:27.708Z,6.86
2018-12-01T10:34:06.665Z,6.86
2018-12-01T10:35:27.711Z,6.82
2018-12-01T10:36:06.755Z,6.92
2018-12-01T10:37:06.737Z,6.89
2018-12-01T10:38:27.759Z,6.93
2018-12-01T10:39:06.774Z,6.90
2018-12-01T10:40:27.794Z,6.87
2018-12-01T10:41:06.833Z,6.93
2018-12-01T10:42:06.844Z,6.92
2018-12-01T10:43:27.914Z,7.07
2018-12-01T10:44:06.861Z,6.93
2018-12-01T10:45:27.934Z,7.03
2018-12-01T10:46:06.898Z,7.18
2018-12-01T10:47:06.943Z,7.18
2018-12-01T10:48:27.985Z,7.10
2018-12-01T10:49:06.971Z,7.10
2018-12-01T10:50:28.136Z,7.15
2018-12-01T10:51:06.986Z,7.22
2018-12-01T10:52:07.042Z,7.25
2018-12-01T10:53:28.039Z,7.25
2018-12-01T10:54:07.080Z,7.19
2018-12-01T10:55:28.162Z,7.23
2018-12-01T10:56:07.154Z,7.25
2018-12-01T10:57:07.165Z,7.32
2018-12-01T10:58:28.196Z,7.32
2018-12-01T10:59:07.165Z,7.36
2018-12-01T11:00:28.197Z,7.25
2018-12-01T11:01:07.181Z,7.32
2018-12-01T11:02:07.272Z,7.25
2018-12-01T11:03:28.310Z,7.32
2018-12-01T11:04:07.359Z,7.37
2018-12-01T11:05:28.291Z,7.33
2018-12-01T11:06:07.350Z,7.39
2018-12-01T11:07:07.304Z,7.41
2018-12-01T11:08:28.351Z,7.33
2018-12-01T11:09:07.366Z,7.31
2018-12-01T11:10:28.413Z,7.36
2018-12-01T11:11:07.403Z,7.39
2018-12-01T11:12:07.413Z,7.37
2018-12-01T11:13:28.437Z,7.46
2018-12-01T11:14:07.488Z,7.40
2018-12-01T11:15:28.479Z,7.61
2018-12-01T11:16:07.523Z,7.66
2018-12-01T11:17:07.522Z,7.81
2018-12-01T11:18:28.601Z,7.80
2018-12-01T11:19:07.564Z,7.85
2018-12-01T11:20:28.592Z,7.88
2018-12-01T11:21:07.607Z,7.93
2018-12-01T11:22:07.640Z,8.09
2018-12-01T11:23:28.664Z,8.16
2018-12-01T11:24:07.666Z,8.18
2018-12-01T11:25:28.718Z,8.03
2018-12-01T11:26:07.749Z,7.99
2018-12-01T11:27:07.733Z,8.06
2018-12-01T11:28:28.788Z,8.17
2018-12-01T11:29:07.773Z,8.13
2018-12-01T11:30:28.865Z,8.13
2018-12-01T11:31:07.807Z,8.09
2018-12-01T11:32:07.813Z,8.06
2018-12-01T11:33:28.886Z,8.05
2018-12-01T11:34:07.879Z,7.93
2018-12-01T11:35:28.929Z,7.91
2018-12-01T11:36:07.929Z,7.91
2018-12-01T11:37:07.974Z,7.93
2018-12-01T11:38:28.979Z,7.88
2018-12-01T11:39:08.006Z,7.90
2018-12-01T11:40:29.014Z,8.03
2018-12-01T11:41:08.014Z,8.02
2018-12-01T11:42:08.070Z,8.17
2018-12-01T11:43:29.090Z,8.18
2018-12-01T11:44:08.088Z,8.27
2018-12-01T11:45:29.106Z,8.26
2018-12-01T11:46:08.107Z,8.27
2018-12-01T11:47:08.178Z,8.23
2018-12-01T11:48:29.174Z,8.27
2018-12-01T11:49:08.218Z,8.32
2018-12-01T11:50:29.314Z,8.31
2018-12-01T11:51:08.230Z,8.38
2018-12-01T11:52:08.266Z,8.31
2018-12-01T11:53:29.337Z,8.31
2018-12-01T11:54:08.305Z,8.34
2018-12-01T11:55:29.319Z,8.26
2018-12-01T11:56:08.344Z,8.20
2018-12-01T11:57:08.363Z,8.20
2018-12-01T11:58:29.413Z,8.14
2018-12-01T11:59:08.474Z,8.09
2018-12-01T12:00:29.445Z,8.21
2018-12-01T12:01:08.441Z,8.16
2018-12-01T12:02:08.439Z,8.08
2018-12-01T12:03:29.493Z,8.13
2018-12-01T12:04:08.627Z,8.11
2018-12-01T12:06:55.487Z,8.02
2018-12-01T12:07:54.404Z,8.14
2018-12-01T12:09:15.454Z,8.16
2018-12-01T12:09:54.431Z,8.16
2018-12-01T12:11:15.467Z,8.03
2018-12-01T12:11:54.489Z,8.01
2018-12-01T12:12:54.509Z,8.01
2018-12-01T12:14:15.538Z,8.05
2018-12-01T12:14:54.528Z,7.96
2018-12-01T12:16:15.603Z,7.91
2018-12-01T12:16:54.609Z,8.01
2018-12-01T12:17:54.588Z,7.96
2018-12-01T12:19:15.631Z,7.91
2018-12-01T12:19:54.745Z,7.96
2018-12-01T12:21:15.658Z,7.95
2018-12-01T12:21:54.688Z,7.93
2018-12-01T12:22:54.695Z,7.96
2018-12-01T12:24:15.744Z,7.98
2018-12-01T12:24:54.765Z,7.99
2018-12-01T12:26:15.752Z,8.09
2018-12-01T12:26:54.803Z,8.05
2018-12-01T12:27:54.819Z,8.03
2018-12-01T12:29:15.844Z,8.06
2018-12-01T12:29:54.861Z,8.01
2018-12-01T12:31:15.873Z,8.05
2018-12-01T12:31:54.892Z,8.05
2018-12-01T12:32:54.928Z,8.09
2018-12-01T12:34:15.940Z,8.11
2018-12-01T12:34:54.957Z,8.14
2018-12-01T12:36:16.000Z,8.14
2018-12-01T12:36:55.008Z,8.11
2018-12-01T12:37:55.038Z,8.16
2018-12-01T12:39:16.036Z,8.05
2018-12-01T12:39:55.040Z,8.06
2018-12-01T12:41:16.134Z,8.03
2018-12-01T12:41:55.096Z,8.02
2018-12-01T12:42:55.144Z,8.03
2018-12-01T12:44:16.168Z,7.99
2018-12-01T12:44:55.158Z,8.09
2018-12-01T12:46:16.175Z,8.09
2018-12-01T12:46:55.212Z,8.01
2018-12-01T12:47:55.238Z,8.01
2018-12-01T12:49:16.254Z,8.17
2018-12-01T12:49:55.255Z,8.03
2018-12-01T12:51:16.285Z,8.06
2018-12-01T12:51:55.320Z,8.03
2018-12-01T12:52:55.319Z,8.08
2018-12-01T12:54:16.378Z,8.03
2018-12-01T12:54:55.363Z,8.08
2018-12-01T12:56:16.387Z,8.16
2018-12-01T12:56:55.424Z,8.14
2018-12-01T12:57:55.429Z,8.17
2018-12-01T12:59:16.460Z,8.18
2018-12-01T12:59:55.471Z,8.14
2018-12-01T13:01:16.484Z,8.09
2018-12-01T13:01:55.514Z,8.13
2018-12-01T13:02:55.519Z,8.16
2018-12-01T13:04:16.565Z,8.11
2018-12-01T13:04:55.576Z,8.11
2018-12-01T13:06:16.606Z,8.11
2018-12-01T13:06:55.620Z,8.11
2018-12-01T13:07:55.634Z,8.13
2018-12-01T13:09:16.708Z,8.16
2018-12-01T13:09:55.669Z,8.05
2018-12-01T13:11:16.693Z,8.20
2018-12-01T13:11:55.712Z,8.13
2018-12-01T13:12:55.703Z,8.01
2018-12-01T13:14:16.764Z,8.16
2018-12-01T13:14:55.760Z,8.11
2018-12-01T13:16:16.806Z,8.17
2018-12-01T13:16:55.798Z,8.14
2018-12-01T13:17:55.826Z,8.17
2018-12-01T13:19:16.851Z,8.05
2018-12-01T13:19:55.863Z,8.05